Time;durP1;ratioP1;P1;durP2;ratioP2;P2;SDS_P1;SDS_P2;PMS_P1;PMS_P2;Temp;Humidity;BMP_temperature;BMP_pressure;BME280_temperature;BME280_humidity;BME280_pressure;Samples;Min_cycle;Max_cycle;Signal;HPM_P1;HPM_P2
2023/01/15 00:01:40;;;;;;;12.68;1.48;;;;;;;-142.75;100.00;76343.94;5079544;28;20032;-66
2023/01/15 00:04:07;;;;;;;13.15;1.77;;;;;;;-142.75;100.00;76341.97;5079331;28;20020;-66
2023/01/15 00:06:38;;;;;;;13.60;1.52;;;;;;;-142.75;100.00;76341.97;5078769;28;20028;-66
2023/01/15 00:09:04;;;;;;;5.70;1.13;;;;;;;-142.75;100.00;76367.53;5079283;28;20563;-65
2023/01/15 00:11:29;;;;;;;13.50;1.80;;;;;;;-142.75;100.00;76345.91;5057914;28;20055;-66
2023/01/15 00:13:55;;;;;;;8.75;1.50;;;;;;;-142.75;100.00;76345.91;5059771;28;20021;-66
2023/01/15 00:16:22;;;;;;;6.40;1.25;;;;;;;-142.75;100.00;76343.94;5058903;28;20013;-63
2023/01/15 00:18:53;;;;;;;9.00;1.37;;;;;;;-142.75;100.00;76334.09;5057468;28;20035;-65
2023/01/15 00:21:20;;;;;;;12.68;1.73;;;;;;;-142.75;100.00;76332.13;5059350;28;20054;-63
2023/01/15 00:29:15;;;;;;;9.70;1.70;;;;;;;-142.75;100.00;76334.09;5059252;28;20135;-66
2023/01/15 00:31:41;;;;;;;;;;;;;;;-142.75;100.00;76330.16;5059729;28;20029;-66
2023/01/15 00:34:06;;;;;;;14.93;1.40;;;;;;;-142.75;100.00;76343.94;5059590;28;19919;-66
2023/01/15 00:36:33;;;;;;;14.25;1.70;;;;;;;-142.75;100.00;76349.81;5064101;28;20051;-65
2023/01/15 00:38:58;;;;;;;;;;;;;;;-142.75;100.00;76306.53;5079419;28;20024;-67
2023/01/15 00:41:24;;;;;;;12.63;1.37;;;;;;;-142.75;100.00;76330.16;5079371;28;20721;-66
2023/01/15 00:43:49;;;;;;;15.88;1.42;;;;;;;-142.75;100.00;76338.03;5079530;28;20039;-65
2023/01/15 00:46:14;;;;;;;16.42;1.88;;;;;;;-142.75;100.00;76341.97;5078589;28;20309;-67
2023/01/15 00:48:39;;;;;;;13.50;1.83;;;;;;;-142.75;100.00;76365.56;5081095;28;20031;-67
2023/01/15 00:51:05;;;;;;;12.13;2.00;;;;;;;-142.75;100.00;76334.09;5083038;28;20082;-66
2023/01/15 00:53:32;;;;;;;6.18;1.17;;;;;;;-142.75;100.00;76334.09;5083272;28;20086;-67
2023/01/15 00:55:57;;;;;;;8.30;2.08;;;;;;;-142.75;100.00;76351.81;5082814;28;20020;-64
2023/01/15 00:58:23;;;;;;;11.55;1.27;;;;;;;-142.75;100.00;76365.56;5082105;28;20027;-66
2023/01/15 01:00:56;;;;;;;7.53;1.48;;;;;;;-142.75;100.00;76353.78;5081912;28;20366;-66
2023/01/15 01:03:22;;;;;;;6.77;0.87;;;;;;;-142.75;100.00;76365.56;5082846;28;20032;-65
2023/01/15 01:05:47;;;;;;;5.68;1.10;;;;;;;-142.75;100.00;76355.72;5083189;28;20432;-66
2023/01/15 01:08:13;;;;;;;17.65;1.42;;;;;;;-142.75;100.00;76375.41;5083510;28;20731;-67
2023/01/15 01:10:38;;;;;;;8.25;0.90;;;;;;;-142.75;100.00;76357.69;5082945;28;20032;-66
2023/01/15 01:13:04;;;;;;;8.93;1.92;;;;;;;-142.75;100.00;76381.31;5082779;28;20749;-66
2023/01/15 01:15:32;;;;;;;9.65;1.70;;;;;;;-142.75;100.00;76385.25;5082661;28;20089;-65
2023/01/15 01:17:57;;;;;;;6.33;1.10;;;;;;;-142.75;100.00;76377.38;5081598;28;20020;-66
2023/01/15 01:20:23;;;;;;;7.15;0.95;;;;;;;-142.75;100.00;76385.25;5082759;28;20066;-65
2023/01/15 01:22:48;;;;;;;12.00;1.33;;;;;;;-142.75;100.00;76373.44;5082657;28;20024;-66
2023/01/15 01:25:13;;;;;;;9.63;1.30;;;;;;;-142.75;100.00;76377.38;5082124;28;20127;-66
2023/01/15 01:27:39;;;;;;;10.43;1.40;;;;;;;-142.75;100.00;76373.44;5081633;28;20012;-66
2023/01/15 01:30:05;;;;;;;10.32;1.33;;;;;;;-142.75;100.00;76367.53;5082372;28;20032;-66
2023/01/15 01:32:30;;;;;;;13.85;1.45;;;;;;;-142.75;100.00;76385.25;5082280;28;20040;-66
2023/01/15 01:34:55;;;;;;;12.32;1.23;;;;;;;-142.75;100.00;76385.25;5082487;28;20031;-63
2023/01/15 01:37:21;;;;;;;10.45;1.55;;;;;;;-142.75;100.00;76377.38;5081390;28;20024;-64
2023/01/15 01:39:46;;;;;;;8.80;1.02;;;;;;;-142.75;100.00;76389.19;5081282;28;20082;-66
2023/01/15 01:42:14;;;;;;;7.88;1.27;;;;;;;-142.75;100.00;76373.44;5080996;28;20801;-66
2023/01/15 01:44:42;;;;;;;7.63;1.00;;;;;;;-142.75;100.00;76393.13;5082183;28;20521;-66
2023/01/15 01:47:30;;;;;;;9.80;1.50;;;;;;;-142.75;100.00;76406.91;5079481;28;20824;-65
2023/01/15 01:50:08;;;;;;;8.50;1.03;;;;;;;-142.75;100.00;76385.25;5081980;28;20032;-65
2023/01/15 01:52:48;;;;;;;14.23;1.70;;;;;;;-142.75;100.00;76397.06;5081027;28;20110;-65
2023/01/15 01:55:17;;;;;;;6.13;0.90;;;;;;;-142.75;100.00;76391.16;5064512;28;20032;-66
2023/01/15 01:57:43;;;;;;;9.07;1.57;;;;;;;-142.75;100.00;76399.03;5060951;28;20074;-66
2023/01/15 02:00:11;;;;;;;14.30;2.07;;;;;;;-142.75;100.00;76414.78;5059967;28;20028;-66
2023/01/15 02:02:37;;;;;;;7.70;1.03;;;;;;;-142.75;100.00;76410.84;5061592;28;20121;-66
2023/01/15 02:05:04;;;;;;;10.33;1.40;;;;;;;-142.75;100.00;76410.84;5061612;28;20028;-67
2023/01/15 02:07:32;;;;;;;8.30;1.27;;;;;;;-142.75;100.00;76393.13;5060653;28;20024;-65
2023/01/15 02:09:58;;;;;;;5.73;1.30;;;;;;;-142.75;100.00;76408.88;5061458;28;20033;-63
2023/01/15 02:12:35;;;;;;;12.47;1.30;;;;;;;-142.75;100.00;76399.03;5061619;28;20036;-64
2023/01/15 02:15:17;;;;;;;9.07;1.33;;;;;;;-142.75;100.00;76395.09;5061407;28;20028;-65
2023/01/15 02:17:46;;;;;;;7.73;1.27;;;;;;;-142.75;100.00;76399.03;5060432;28;20055;-66
2023/01/15 02:20:21;;;;;;;6.13;1.27;;;;;;;-142.75;100.00;76414.78;5060054;28;20151;-65
2023/01/15 02:22:49;;;;;;;9.80;1.57;;;;;;;-142.75;100.00;76410.84;5061459;28;20497;-65
2023/01/15 02:25:31;;;;;;;10.67;2.03;;;;;;;-142.75;100.00;76408.88;5061051;28;20105;-66
2023/01/15 02:28:20;;;;;;;8.70;1.30;;;;;;;-142.75;100.00;76412.81;5060586;28;20020;-63
2023/01/15 02:30:52;;;;;;;9.67;1.50;;;;;;;-142.75;100.00;76406.91;5060045;28;20044;-66
2023/01/15 02:33:22;;;;;;;7.43;1.67;;;;;;;-142.75;100.00;76401.00;5061040;28;20040;-65
2023/01/15 02:35:59;;;;;;;6.30;1.00;;;;;;;-142.75;100.00;76391.16;5061138;28;20040;-65
2023/01/15 02:38:29;;;;;;;6.47;1.03;;;;;;;-142.75;100.00;76412.81;5058853;28;20036;-65
2023/01/15 02:40:59;;;;;;;10.77;1.43;;;;;;;-142.75;100.00;76408.88;5061380;28;20825;-66
2023/01/15 02:43:28;;;;;;;11.80;1.53;;;;;;;-142.75;100.00;76416.75;5059453;28;20031;-65
2023/01/15 02:45:55;;;;;;;12.07;1.27;;;;;;;-142.75;100.00;76416.75;5060948;28;20478;-65
2023/01/15 02:48:25;;;;;;;10.03;1.87;;;;;;;-142.75;100.00;76410.84;5060226;28;20039;-63
2023/01/15 02:50:57;;;;;;;8.33;1.07;;;;;;;-142.75;100.00;76412.81;5060997;28;20398;-65
2023/01/15 02:53:29;;;;;;;9.53;1.27;;;;;;;-142.75;100.00;76397.06;5060939;28;20549;-65
2023/01/15 02:56:02;;;;;;;11.07;1.50;;;;;;;-142.75;100.00;76393.13;5070506;28;20028;-65
2023/01/15 02:58:34;;;;;;;6.23;1.13;;;;;;;-142.75;100.00;76397.06;5063453;28;20816;-65
2023/01/15 03:01:04;;;;;;;16.57;1.50;;;;;;;-142.75;100.00;76401.00;5060726;28;20031;-66
2023/01/15 03:03:45;;;;;;;9.20;1.17;;;;;;;-142.75;100.00;76381.31;5060686;28;20549;-66
2023/01/15 03:06:26;;;;;;;10.75;1.60;;;;;;;-142.75;100.00;76412.81;5060378;28;20041;-66
2023/01/15 03:08:52;;;;;;;7.37;0.90;;;;;;;-142.75;100.00;76416.75;5059972;28;20847;-66
2023/01/15 03:11:18;;;;;;;14.52;1.92;;;;;;;-142.75;100.00;76397.06;5058049;28;20119;-65
2023/01/15 03:14:12;;;;;;;8.67;0.97;;;;;;;-142.75;100.00;76389.19;5060197;28;20534;-66
2023/01/15 03:16:44;;;;;;;13.87;2.03;;;;;;;-142.75;100.00;76387.22;5059402;28;20024;-63
2023/01/15 03:19:22;;;;;;;13.40;1.27;;;;;;;-142.75;100.00;76408.88;5059001;28;20493;-65
2023/01/15 03:21:56;;;;;;;12.97;1.33;;;;;;;-142.75;100.00;76393.13;5060546;28;20025;-65
2023/01/15 03:24:45;;;;;;;8.77;1.70;;;;;;;-142.75;100.00;76395.09;5059948;28;20036;-64
2023/01/15 03:27:10;;;;;;;5.57;0.87;;;;;;;-142.75;100.00;76420.69;5058589;28;20043;-65
2023/01/15 03:29:40;;;;;;;6.05;1.15;;;;;;;-142.75;100.00;76397.06;5059647;28;20024;-65
2023/01/15 03:32:06;;;;;;;13.93;1.43;;;;;;;-142.75;100.00;76416.75;5059685;28;20031;-65
2023/01/15 03:34:55;;;;;;;7.18;1.25;;;;;;;-142.75;100.00;76414.78;5060088;28;20032;-65
2023/01/15 03:37:23;;;;;;;4.53;1.00;;;;;;;-142.75;100.00;76418.72;5053327;28;20036;-63
2023/01/15 03:39:50;;;;;;;6.37;1.33;;;;;;;-142.75;100.00;76408.88;5060026;28;20107;-65
2023/01/15 03:42:30;;;;;;;8.27;1.23;;;;;;;-142.75;100.00;76401.00;5059578;28;20462;-66
2023/01/15 03:45:10;;;;;;;5.97;1.10;;;;;;;-142.75;100.00;76397.06;5060150;28;20040;-62
2023/01/15 03:47:44;;;;;;;3.53;0.70;;;;;;;-142.75;100.00;76399.03;5058958;28;20390;-66
2023/01/15 03:50:36;;;;;;;9.43;1.23;;;;;;;-142.75;100.00;76393.13;5058234;28;20132;-65
2023/01/15 03:53:17;;;;;;;11.43;1.20;;;;;;;-142.75;100.00;76412.81;5059338;28;20028;-65
2023/01/15 03:56:01;;;;;;;10.87;1.20;;;;;;;-142.75;100.00;76416.75;5059466;28;20040;-66
2023/01/15 03:58:37;;;;;;;4.70;1.00;;;;;;;-142.75;100.00;76416.75;5057254;28;20028;-66
2023/01/15 04:01:08;;;;;;;7.50;1.55;;;;;;;-142.75;100.00;76414.78;5059505;28;20032;-65
2023/01/15 04:03:36;;;;;;;15.43;1.70;;;;;;;-142.75;100.00;76406.91;5059451;28;20029;-66
2023/01/15 04:06:02;;;;;;;6.07;1.17;;;;;;;-142.75;100.00;76412.81;5058938;28;20032;-65
2023/01/15 04:08:32;;;;;;;4.73;1.27;;;;;;;-142.75;100.00;76401.00;5058587;28;20055;-65
2023/01/15 04:10:59;;;;;;;8.27;1.70;;;;;;;-142.75;100.00;76414.78;5059534;28;20024;-63
2023/01/15 04:13:25;;;;;;;7.60;1.70;;;;;;;-142.75;100.00;76422.66;5059124;28;20855;-63
2023/01/15 04:15:51;;;;;;;7.03;1.02;;;;;;;-142.75;100.00;76418.72;5059480;28;20033;-66
2023/01/15 04:18:16;;;;;;;9.82;1.33;;;;;;;-142.75;100.00;76401.00;5057317;28;20039;-66
2023/01/15 04:20:42;;;;;;;8.02;0.93;;;;;;;-142.75;100.00;76420.69;5059239;28;20030;-65
2023/01/15 04:23:08;;;;;;;4.20;1.02;;;;;;;-142.75;100.00;76430.53;5058673;28;20024;-65
2023/01/15 04:25:33;;;;;;;9.48;1.40;;;;;;;-142.75;100.00;76424.63;5058924;28;20033;-66
2023/01/15 04:27:58;;;;;;;8.15;0.95;;;;;;;-142.75;100.00;76424.63;5058484;28;20047;-64
2023/01/15 04:30:24;;;;;;;8.80;1.23;;;;;;;-142.75;100.00;76412.81;5059304;28;20074;-66
2023/01/15 04:32:51;;;;;;;8.35;1.88;;;;;;;-142.75;100.00;76414.78;5059413;28;20025;-65
2023/01/15 04:35:17;;;;;;;8.10;1.07;;;;;;;-142.75;100.00;76412.81;5057937;28;20752;-65
2023/01/15 04:37:42;;;;;;;11.80;1.67;;;;;;;-142.75;100.00;76424.63;5056948;28;20478;-65
2023/01/15 04:40:08;;;;;;;7.75;1.20;;;;;;;-142.75;100.00;76424.63;5058999;28;20076;-65
2023/01/15 04:45:18;;;;;;;7.53;1.17;;;;;;;-142.75;100.00;76428.56;5059156;28;20044;-65
2023/01/15 04:47:43;;;;;;;3.30;1.10;;;;;;;-142.75;100.00;76440.38;5058345;28;20024;-65
2023/01/15 04:50:09;;;;;;;6.57;0.90;;;;;;;-142.75;100.00;76424.63;5058826;28;20031;-65
2023/01/15 04:52:35;;;;;;;11.37;1.50;;;;;;;-142.75;100.00;76432.50;5058882;28;20549;-66
2023/01/15 04:55:00;;;;;;;6.72;1.50;;;;;;;-142.75;100.00;76440.38;5057306;28;20078;-64
2023/01/15 04:57:26;;;;;;;11.05;1.80;;;;;;;-142.75;100.00;76420.69;5057946;28;20034;-64
2023/01/15 04:59:51;;;;;;;7.80;1.55;;;;;;;-142.75;100.00;76424.63;5057936;28;20781;-65
2023/01/15 05:02:16;;;;;;;15.60;1.73;;;;;;;-142.75;100.00;76432.50;5057610;28;20038;-66
2023/01/15 05:04:42;;;;;;;3.92;0.90;;;;;;;-142.75;100.00;76436.44;5058990;28;20020;-64
2023/01/15 05:07:08;;;;;;;10.23;1.00;;;;;;;-142.75;100.00;76442.34;5057754;28;20016;-65
2023/01/15 05:09:34;;;;;;;5.37;1.20;;;;;;;-142.75;100.00;76428.56;5058717;28;20454;-65
2023/01/15 05:11:59;;;;;;;5.65;1.20;;;;;;;-142.75;100.00;76426.59;5058639;28;20036;-65
2023/01/15 05:14:25;;;;;;;16.55;1.20;;;;;;;-142.75;100.00;76436.44;5058792;28;20060;-65
2023/01/15 05:16:50;;;;;;;7.65;1.25;;;;;;;-142.75;100.00;76412.81;5058284;28;20024;-65
2023/01/15 05:19:15;;;;;;;9.98;1.08;;;;;;;-142.75;100.00;76432.50;5061644;28;20025;-65
2023/01/15 05:21:42;;;;;;;5.65;1.05;;;;;;;-142.75;100.00;76418.72;5072145;28;20024;-66
2023/01/15 05:24:14;;;;;;;7.80;1.00;;;;;;;-142.75;100.00;76434.47;5068482;28;20061;-65
2023/01/15 05:26:40;;;;;;;12.97;1.20;;;;;;;-142.75;100.00;76432.50;5056088;28;20021;-65
2023/01/15 05:29:05;;;;;;;5.55;1.10;;;;;;;-142.75;100.00;76448.25;5058703;28;20703;-66
2023/01/15 05:31:32;;;;;;;9.15;1.15;;;;;;;-142.75;100.00;76440.38;5058980;28;20041;-66
2023/01/15 05:33:58;;;;;;;3.97;1.00;;;;;;;-142.75;100.00;76444.31;5061574;28;20020;-65
2023/01/15 05:36:27;;;;;;;8.70;1.33;;;;;;;-142.75;100.00;76456.13;5081919;28;20027;-64
2023/01/15 05:38:53;;;;;;;6.13;0.97;;;;;;;-142.75;100.00;76458.09;5082024;28;20045;-67
2023/01/15 05:44:08;;;;;;;6.90;0.83;;;;;;;-142.75;100.00;76456.13;5082542;28;20063;-65
2023/01/15 05:46:35;;;;;;;6.10;1.27;;;;;;;-142.75;100.00;76462.03;5081377;28;20752;-62
2023/01/15 05:49:02;;;;;;;8.10;1.27;;;;;;;-142.75;100.00;76460.06;5081736;28;20032;-65
2023/01/15 05:51:28;;;;;;;7.23;1.13;;;;;;;-142.75;100.00;76464.00;5082023;28;20039;-65
2023/01/15 05:53:55;;;;;;;6.07;1.95;;;;;;;-142.75;100.00;76460.06;5082197;28;20395;-65
2023/01/15 05:56:20;;;;;;;8.60;1.30;;;;;;;-142.75;100.00;76467.94;5080619;28;20074;-63
2023/01/15 05:58:46;;;;;;;9.32;0.90;;;;;;;-142.75;100.00;76465.97;5081520;28;20138;-65
2023/01/15 06:01:11;;;;;;;5.47;0.88;;;;;;;-142.75;100.00;76467.94;5081961;28;20393;-66
2023/01/15 06:03:37;;;;;;;10.43;0.90;;;;;;;-142.75;100.00;76487.63;5081600;28;20107;-66
2023/01/15 06:06:03;;;;;;;8.18;1.50;;;;;;;-142.75;100.00;76475.81;5081778;28;20024;-65
2023/01/15 06:08:28;;;;;;;;;;;;;;;-142.75;100.00;76487.63;5081615;28;20893;-64
2023/01/15 06:10:54;;;;;;;9.60;0.77;;;;;;;-142.75;100.00;76483.69;5081924;28;19911;-66
2023/01/15 06:13:19;;;;;;;4.22;1.00;;;;;;;-142.75;100.00;76475.81;5081765;28;20028;-66
2023/01/15 06:15:44;;;;;;;9.45;1.30;;;;;;;-142.75;100.00;76479.75;5081613;28;20126;-65
2023/01/15 06:18:10;;;;;;;6.40;0.80;;;;;;;-142.75;100.00;76489.59;5080684;28;20388;-66
2023/01/15 06:20:40;;;;;;;5.65;0.90;;;;;;;-142.75;100.00;76491.56;5081128;28;20031;-65
2023/01/15 06:23:05;;;;;;;2.83;0.63;;;;;;;-142.75;100.00;76503.38;5081290;28;20070;-65
2023/01/15 06:25:35;;;;;;;3.83;0.68;;;;;;;-142.75;100.00;76497.47;5079950;28;20119;-65
2023/01/15 06:28:06;;;;;;;5.90;0.87;;;;;;;-142.75;100.00;76515.19;5079153;28;20034;-66
2023/01/15 06:30:32;;;;;;;4.77;1.30;;;;;;;-142.75;100.00;76513.22;5081424;28;20032;-66
2023/01/15 06:32:57;;;;;;;6.65;0.98;;;;;;;-142.75;100.00;76515.19;5079873;28;20078;-63
2023/01/15 06:35:22;;;;;;;8.93;1.10;;;;;;;-142.75;100.00;76515.19;5081271;28;20020;-65
2023/01/15 06:37:48;;;;;;;6.05;1.10;;;;;;;-142.75;100.00;76517.16;5080872;28;20035;-63
2023/01/15 06:40:14;;;;;;;6.87;1.10;;;;;;;-142.75;100.00;76527.00;5081092;28;20031;-64
2023/01/15 06:48:07;;;;;;;4.67;0.80;;;;;;;-142.75;100.00;76527.00;5079926;28;20065;-64
2023/01/15 06:50:32;;;;;;;9.15;0.90;;;;;;;-142.75;100.00;76534.84;5080894;28;20763;-65
2023/01/15 06:52:58;;;;;;;6.65;1.00;;;;;;;-142.75;100.00;76517.16;5080766;28;20560;-66
2023/01/15 06:55:23;;;;;;;6.60;1.10;;;;;;;-142.75;100.00;76515.19;5080696;28;20020;-66
2023/01/15 06:57:48;;;;;;;6.95;1.08;;;;;;;-142.75;100.00;76530.91;5080280;28;20016;-64
2023/01/15 07:00:14;;;;;;;10.73;1.35;;;;;;;-142.75;100.00;76532.88;5080343;28;20020;-65
2023/01/15 07:02:40;;;;;;;5.80;0.90;;;;;;;-142.75;100.00;76534.84;5079196;28;20859;-65
2023/01/15 07:05:06;;;;;;;7.78;0.95;;;;;;;-142.75;100.00;76519.13;5079038;28;20600;-65
2023/01/15 07:07:31;;;;;;;5.32;0.82;;;;;;;-142.75;100.00;76523.06;5062256;22;20046;-66
2023/01/15 07:09:56;;;;;;;8.02;1.42;;;;;;;-142.75;100.00;76523.06;5020436;28;20132;-64
2023/01/15 07:12:22;;;;;;;8.15;1.15;;;;;;;-142.75;100.00;76532.88;5020525;28;20029;-64
2023/01/15 07:14:47;;;;;;;6.20;0.85;;;;;;;-142.75;100.00;76538.78;5020731;28;20062;-64
2023/01/15 07:17:13;;;;;;;8.63;0.90;;;;;;;-142.75;100.00;76538.78;5018228;28;20018;-66
2023/01/15 07:19:39;;;;;;;7.88;1.58;;;;;;;-142.75;100.00;76542.72;5020352;28;20063;-66
2023/01/15 07:22:05;;;;;;;6.25;1.13;;;;;;;-142.75;100.00;76536.84;5020170;28;20021;-66
2023/01/15 07:24:31;;;;;;;3.93;0.83;;;;;;;-142.75;100.00;76552.56;5020043;28;20068;-66
2023/01/15 07:26:56;;;;;;;6.03;1.00;;;;;;;-142.75;100.00;76554.53;5001312;28;20100;-65
2023/01/15 07:29:22;;;;;;;8.63;1.02;;;;;;;-142.75;100.00;76562.41;5020132;28;20025;-65
2023/01/15 07:31:48;;;;;;;3.88;0.82;;;;;;;-142.75;100.00;76552.56;5020305;28;20029;-64
2023/01/15 07:34:14;;;;;;;3.33;0.82;;;;;;;-142.75;100.00;76558.47;5019970;28;20029;-67
2023/01/15 07:36:39;;;;;;;5.10;0.98;;;;;;;-142.75;100.00;76554.53;5019150;28;20540;-67
2023/01/15 07:39:06;;;;;;;7.50;1.38;;;;;;;-142.75;100.00;76564.38;5019856;28;20021;-66
2023/01/15 07:49:47;;;;;;;6.70;0.97;;;;;;;-142.75;100.00;76554.53;5019873;28;20835;-67
2023/01/15 07:52:21;;;;;;;8.93;0.97;;;;;;;-142.75;100.00;76540.75;5019735;28;20052;-66
2023/01/15 07:54:48;;;;;;;9.77;1.07;;;;;;;-142.75;100.00;76548.63;5020089;28;20116;-66
2023/01/15 07:57:17;;;;;;;11.67;1.43;;;;;;;-142.75;100.00;76538.78;5018493;28;20044;-67
2023/01/15 07:59:43;;;;;;;8.87;1.33;;;;;;;-142.75;100.00;76554.53;5019935;28;20025;-66
2023/01/15 08:02:08;;;;;;;9.38;1.02;;;;;;;-142.75;100.00;76554.53;5019461;28;20099;-65
2023/01/15 08:04:34;;;;;;;10.50;1.20;;;;;;;-142.75;100.00;76548.63;5019749;28;20032;-66
2023/01/15 08:07:01;;;;;;;13.55;1.17;;;;;;;-142.75;100.00;76523.06;5018364;28;20072;-66
2023/01/15 08:09:27;;;;;;;9.57;1.10;;;;;;;-142.75;100.00;76525.03;5019481;28;20112;-67
2023/01/15 08:17:19;;;;;;;14.10;1.57;;;;;;;-142.75;100.00;76469.91;5018697;28;20068;-66
2023/01/15 08:19:45;;;;;;;10.25;1.35;;;;;;;-142.75;100.00;76444.31;5019518;28;20378;-66
2023/01/15 08:22:10;;;;;;;11.77;1.35;;;;;;;-142.75;100.00;76430.53;5018978;28;20029;-66
2023/01/15 08:24:36;;;;;;;6.65;0.93;;;;;;;-142.75;100.00;76422.66;5019170;28;20057;-66
2023/01/15 08:27:01;;;;;;;7.15;1.10;;;;;;;-142.75;100.00;76408.88;5018398;28;20108;-65
2023/01/15 08:29:27;;;;;;;6.38;0.85;;;;;;;-142.75;100.00;76389.19;5019066;28;20041;-66
2023/01/15 08:31:52;;;;;;;13.75;1.10;;;;;;;-142.75;100.00;76397.06;5019744;28;20056;-65
2023/01/15 08:34:18;;;;;;;7.53;1.15;;;;;;;-142.75;100.00;76416.75;5019226;28;20028;-63
2023/01/15 08:36:43;;;;;;;7.40;0.98;;;;;;;-142.75;100.00;76410.84;5018170;28;20025;-63
2023/01/15 08:39:09;;;;;;;15.38;1.80;;;;;;;-142.75;100.00;76410.84;5019121;28;20060;-66
2023/01/15 08:41:34;;;;;;;9.30;1.63;;;;;;;-142.75;100.00;76395.09;5019508;28;20778;-65
2023/01/15 08:44:00;;;;;;;4.87;0.90;;;;;;;-142.75;100.00;76402.97;5018946;28;20490;-67
2023/01/15 08:46:25;;;;;;;11.50;1.38;;;;;;;-142.75;100.00;76371.47;5018785;28;20319;-67
2023/01/15 08:48:52;;;;;;;8.68;1.23;;;;;;;-142.75;100.00;76330.16;5018668;28;20104;-66
2023/01/15 08:51:18;;;;;;;11.30;1.13;;;;;;;-142.75;100.00;76282.91;5001144;28;20059;-66
2023/01/15 08:53:43;;;;;;;11.27;1.52;;;;;;;-142.75;100.00;76271.09;5001365;28;20021;-66
2023/01/15 08:56:14;;;;;;;6.85;1.35;;;;;;;-142.75;100.00;76249.44;5019143;28;20032;-66
2023/01/15 08:58:39;;;;;;;7.35;1.10;;;;;;;-142.75;100.00;76271.09;5018311;28;20022;-66
2023/01/15 09:01:07;;;;;;;5.80;0.70;;;;;;;-142.75;100.00;76298.66;5019007;28;20028;-66
2023/01/15 09:03:32;;;;;;;9.88;1.63;;;;;;;-142.75;100.00;76310.47;5018852;28;20033;-66
2023/01/15 09:05:58;;;;;;;10.02;1.05;;;;;;;-142.75;100.00;76341.97;5018565;28;20021;-65
2023/01/15 09:08:25;;;;;;;6.45;1.02;;;;;;;-142.75;100.00;76341.97;5018585;28;20518;-66
2023/01/15 09:10:50;;;;;;;;;;;;;;;-142.75;100.00;76341.97;5023550;28;20052;-67
2023/01/15 09:13:15;;;;;;;9.87;1.47;;;;;;;-142.75;100.00;76357.69;5022550;28;20771;-66
2023/01/15 09:15:41;;;;;;;3.58;0.75;;;;;;;-142.75;100.00;76361.63;5005173;28;20032;-67
2023/01/15 09:18:09;;;;;;;5.25;1.10;;;;;;;-142.75;100.00;76377.38;5021795;28;20037;-66
2023/01/15 09:20:34;;;;;;;12.60;1.30;;;;;;;-142.75;100.00;76377.38;5022455;28;20025;-67
2023/01/15 09:23:00;;;;;;;4.75;0.80;;;;;;;-142.75;100.00;76363.59;5022264;28;20100;-66
2023/01/15 09:25:25;;;;;;;6.55;1.63;;;;;;;-142.75;100.00;76371.47;5022636;28;20026;-66
2023/01/15 09:27:54;;;;;;;9.75;0.95;;;;;;;-142.75;100.00;76353.78;5021905;28;20017;-67
2023/01/15 09:30:20;;;;;;;5.77;1.23;;;;;;;-142.75;100.00;76381.31;5022253;28;20056;-68
2023/01/15 09:32:45;;;;;;;6.78;0.93;;;;;;;-142.75;100.00;76367.53;5022543;28;20025;-65
2023/01/15 09:35:11;;;;;;;11.88;1.20;;;;;;;-142.75;100.00;76414.78;5022213;28;20025;-66
2023/01/15 09:37:36;;;;;;;10.88;1.70;;;;;;;-142.75;100.00;76412.81;5021745;28;20124;-66
2023/01/15 09:40:03;;;;;;;9.10;1.00;;;;;;;-142.75;100.00;76424.63;5021939;28;20053;-66
2023/01/15 09:42:51;;;;;;;9.43;1.20;;;;;;;-142.75;100.00;76408.88;5022016;28;20033;-66
2023/01/15 09:45:25;;;;;;;10.83;1.20;;;;;;;-142.75;100.00;76420.69;5022068;28;20022;-64
2023/01/15 09:47:58;;;;;;;7.57;1.07;;;;;;;-142.75;100.00;76385.25;5021563;28;20021;-65
2023/01/15 09:50:46;;;;;;;8.87;1.00;;;;;;;-142.75;100.00;76314.41;5021754;28;20031;-67
2023/01/15 09:53:46;;;;;;;13.15;1.45;;;;;;;-142.75;100.00;76286.84;5020876;28;20017;-66
2023/01/15 09:56:24;;;;;;;8.27;1.47;;;;;;;-142.75;100.00;76275.03;5003949;28;20109;-66
2023/01/15 09:58:51;;;;;;;6.25;1.08;;;;;;;-142.75;100.00;76294.72;5021437;28;20423;-66
2023/01/15 10:01:23;;;;;;;7.63;1.13;;;;;;;-142.75;100.00;76322.28;5022114;28;20494;-65
2023/01/15 10:03:57;;;;;;;14.88;1.60;;;;;;;-142.75;100.00;76310.47;5022341;28;20029;-66
2023/01/15 10:06:31;;;;;;;9.13;1.40;;;;;;;-142.75;100.00;76280.94;5021267;28;20017;-67
2023/01/15 10:09:24;;;;;;;9.68;1.20;;;;;;;-142.75;100.00;76215.97;5019687;28;20778;-64
2023/01/15 10:15:25;;;;;;;5.78;2.13;;;;;;;-142.75;100.00;76271.09;5022364;28;20036;-67
2023/01/15 10:17:56;;;;;;;14.20;1.23;;;;;;;-142.75;100.00;76326.22;5014832;28;20506;-66
2023/01/15 10:20:40;;;;;;;14.70;1.67;;;;;;;-142.75;100.00;76326.22;5021127;28;20026;-65
2023/01/15 10:23:09;;;;;;;5.75;1.00;;;;;;;-142.75;100.00;76338.03;5021224;28;20044;-66
2023/01/15 10:25:47;;;;;;;9.40;1.50;;;;;;;-142.75;100.00;76359.66;5021351;28;20788;-66
2023/01/15 10:28:22;;;;;;;9.67;1.13;;;;;;;-142.75;100.00;76334.09;5020235;28;20096;-66
2023/01/15 10:30:54;;;;;;;11.45;1.75;;;;;;;-142.75;100.00;76310.47;5021448;28;20025;-65
2023/01/15 10:33:38;;;;;;;10.23;1.40;;;;;;;-142.75;100.00;76284.88;5003937;28;20025;-65
2023/01/15 10:36:13;;;;;;;10.45;1.50;;;;;;;-142.75;100.00;76251.41;5021041;28;20032;-66
2023/01/15 10:38:49;;;;;;;4.95;1.02;;;;;;;-142.75;100.00;76253.38;5020496;28;20061;-69
2023/01/15 10:41:17;;;;;;;8.93;1.13;;;;;;;-142.75;100.00;76282.91;5020043;28;20029;-66
2023/01/15 10:44:18;;;;;;;8.90;1.30;;;;;;;-142.75;100.00;76292.75;5021311;28;20025;-66
2023/01/15 10:46:52;;;;;;;8.05;1.80;;;;;;;-142.75;100.00;76324.25;5018968;28;20186;-67
2023/01/15 10:49:17;;;;;;;10.65;1.05;;;;;;;-142.75;100.00;76345.91;5002216;28;20061;-66
2023/01/15 10:51:46;;;;;;;8.02;1.13;;;;;;;-142.75;100.00;76365.56;5020679;28;20112;-66
2023/01/15 10:54:17;;;;;;;11.17;1.47;;;;;;;-142.75;100.00;76363.59;5020637;28;20518;-66
2023/01/15 10:56:50;;;;;;;8.13;1.23;;;;;;;-142.75;100.00;76318.34;5002403;28;20047;-66
2023/01/15 10:59:21;;;;;;;10.25;1.50;;;;;;;-142.75;100.00;76351.81;5020649;28;20031;-66
2023/01/15 11:01:50;;;;;;;10.47;1.37;;;;;;;-142.75;100.00;76326.22;5020777;28;20271;-64
2023/01/15 11:04:15;;;;;;;7.17;1.47;;;;;;;-142.75;100.00;76389.19;5020692;28;20502;-67
2023/01/15 11:06:41;;;;;;;14.15;1.30;;;;;;;-142.75;100.00;76387.22;5001815;28;20108;-66
2023/01/15 11:09:21;;;;;;;5.93;1.10;;;;;;;-142.75;100.00;76373.44;5020307;28;20036;-66
2023/01/15 11:20:42;;;;;;;4.95;1.02;;;;;;;-142.75;100.00;76247.47;5020603;28;20125;-66
2023/01/15 11:23:17;;;;;;;8.18;1.55;;;;;;;-142.75;100.00;76210.06;5019994;28;20033;-68
2023/01/15 11:25:55;;;;;;;8.43;1.38;;;;;;;-142.75;100.00;76139.22;5020191;28;20037;-67
2023/01/15 11:28:39;;;;;;;9.35;1.52;;;;;;;-142.75;100.00;76121.50;5018983;28;20025;-65
2023/01/15 11:31:06;;;;;;;5.07;1.05;;;;;;;-142.75;100.00;76164.81;5018284;28;20029;-67
2023/01/15 11:33:32;;;;;;;7.07;1.20;;;;;;;-142.75;100.00;76190.41;5020049;28;20033;-67
2023/01/15 11:35:59;;;;;;;;;;;;;;;-142.75;100.00;76231.72;5020541;28;20546;-66
2023/01/15 11:38:29;;;;;;;3.67;0.55;;;;;;;-142.75;100.00;76186.47;5019065;28;19912;-67
2023/01/15 11:40:59;;;;;;;11.88;1.55;;;;;;;-142.75;100.00;76204.16;5020224;28;20027;-67
2023/01/15 11:52:02;;;;;;;8.83;1.30;;;;;;;-142.75;100.00;76369.50;5019708;28;20036;-68
2023/01/15 11:54:31;;;;;;;8.23;1.17;;;;;;;-142.75;100.00;76377.38;5019906;28;20033;-67
2023/01/15 11:56:57;;;;;;;8.00;1.33;;;;;;;-142.75;100.00;76383.28;5001020;28;20060;-65
2023/01/15 11:59:24;;;;;;;5.60;1.00;;;;;;;-142.75;100.00;76361.63;5019399;28;20029;-67
2023/01/15 12:01:59;;;;;;;10.30;1.10;;;;;;;-142.75;100.00;76373.44;5020033;28;20126;-67
2023/01/15 12:04:35;;;;;;;5.57;1.00;;;;;;;-142.75;100.00;76397.06;5019373;28;20033;-67
2023/01/15 12:07:02;;;;;;;;;;;;;;;-142.75;100.00;76401.00;5018694;28;20022;-67
2023/01/15 12:09:53;;;;;;;8.80;1.42;;;;;;;-142.75;100.00;76426.59;5019506;28;20790;-66